sensor_id;sensor_type;location;lat;lon;timestamp;P1;durP1;ratioP1;P2;durP2;ratioP2
41627;SDS011;27321;50.816;6.054;2023-03-05T00:02:59;5.67;;;1.20;;
41627;SDS011;27321;50.816;6.054;2023-03-05T00:06:00;3.27;;;0.90;;
41627;SDS011;27321;50.816;6.054;2023-03-05T00:09:03;2.57;;;1.07;;
41627;SDS011;27321;50.816;6.054;2023-03-05T00:15:06;3.40;;;0.98;;
41627;SDS011;27321;50.816;6.054;2023-03-05T00:18:08;3.97;;;1.00;;
41627;SDS011;27321;50.816;6.054;2023-03-05T00:21:29;1.80;;;0.90;;
41627;SDS011;27321;50.816;6.054;2023-03-05T00:24:34;2.43;;;0.90;;
41627;SDS011;27321;50.816;6.054;2023-03-05T00:27:35;2.13;;;0.80;;
41627;SDS011;27321;50.816;6.054;2023-03-05T00:30:36;3.00;;;1.00;;
41627;SDS011;27321;50.816;6.054;2023-03-05T00:33:37;1.17;;;0.77;;
41627;SDS011;27321;50.816;6.054;2023-03-05T00:36:43;6.38;;;0.80;;
41627;SDS011;27321;50.816;6.054;2023-03-05T00:39:46;2.63;;;1.10;;
41627;SDS011;27321;50.816;6.054;2023-03-05T00:42:47;2.27;;;0.67;;
41627;SDS011;27321;50.816;6.054;2023-03-05T00:45:48;4.32;;;1.10;;
41627;SDS011;27321;50.816;6.054;2023-03-05T00:48:49;1.67;;;0.87;;
41627;SDS011;27321;50.816;6.054;2023-03-05T00:51:52;2.77;;;0.83;;
41627;SDS011;27321;50.816;6.054;2023-03-05T00:54:53;4.47;;;1.27;;
41627;SDS011;27321;50.816;6.054;2023-03-05T00:57:54;2.90;;;1.10;;
41627;SDS011;27321;50.816;6.054;2023-03-05T01:00:58;1.83;;;1.10;;
41627;SDS011;27321;50.816;6.054;2023-03-05T01:04:01;2.50;;;0.97;;
41627;SDS011;27321;50.816;6.054;2023-03-05T01:07:02;1.83;;;1.10;;
41627;SDS011;27321;50.816;6.054;2023-03-05T01:10:04;1.92;;;0.95;;
41627;SDS011;27321;50.816;6.054;2023-03-05T01:13:06;1.10;;;0.87;;
41627;SDS011;27321;50.816;6.054;2023-03-05T01:16:07;2.00;;;0.90;;
41627;SDS011;27321;50.816;6.054;2023-03-05T01:19:08;3.08;;;1.40;;
41627;SDS011;27321;50.816;6.054;2023-03-05T01:22:09;3.08;;;1.15;;
41627;SDS011;27321;50.816;6.054;2023-03-05T01:25:11;3.00;;;1.07;;
41627;SDS011;27321;50.816;6.054;2023-03-05T01:28:13;2.60;;;1.23;;
41627;SDS011;27321;50.816;6.054;2023-03-05T01:31:14;6.77;;;1.43;;
41627;SDS011;27321;50.816;6.054;2023-03-05T01:34:15;4.23;;;1.50;;
41627;SDS011;27321;50.816;6.054;2023-03-05T01:40:19;5.10;;;1.10;;
41627;SDS011;27321;50.816;6.054;2023-03-05T01:43:27;2.77;;;1.00;;
41627;SDS011;27321;50.816;6.054;2023-03-05T01:46:38;2.50;;;0.97;;
41627;SDS011;27321;50.816;6.054;2023-03-05T01:49:39;3.23;;;1.63;;
41627;SDS011;27321;50.816;6.054;2023-03-05T01:52:42;4.43;;;1.48;;
41627;SDS011;27321;50.816;6.054;2023-03-05T01:55:48;2.70;;;1.30;;
41627;SDS011;27321;50.816;6.054;2023-03-05T01:58:50;6.15;;;1.35;;
41627;SDS011;27321;50.816;6.054;2023-03-05T02:01:54;3.30;;;0.97;;
41627;SDS011;27321;50.816;6.054;2023-03-05T02:04:59;5.80;;;1.33;;
41627;SDS011;27321;50.816;6.054;2023-03-05T02:08:09;2.30;;;1.00;;
41627;SDS011;27321;50.816;6.054;2023-03-05T02:11:14;5.17;;;1.03;;
41627;SDS011;27321;50.816;6.054;2023-03-05T02:14:15;1.80;;;0.93;;
41627;SDS011;27321;50.816;6.054;2023-03-05T02:17:16;4.70;;;1.17;;
41627;SDS011;27321;50.816;6.054;2023-03-05T02:20:21;3.85;;;1.50;;
41627;SDS011;27321;50.816;6.054;2023-03-05T02:23:26;3.33;;;1.40;;
41627;SDS011;27321;50.816;6.054;2023-03-05T02:26:30;2.47;;;1.13;;
41627;SDS011;27321;50.816;6.054;2023-03-05T02:29:31;2.03;;;1.20;;
41627;SDS011;27321;50.816;6.054;2023-03-05T02:32:33;4.07;;;1.40;;
41627;SDS011;27321;50.816;6.054;2023-03-05T02:35:35;3.72;;;1.77;;
41627;SDS011;27321;50.816;6.054;2023-03-05T02:38:37;6.22;;;2.05;;
41627;SDS011;27321;50.816;6.054;2023-03-05T02:41:40;4.90;;;1.90;;
41627;SDS011;27321;50.816;6.054;2023-03-05T02:44:41;5.50;;;2.10;;
41627;SDS011;27321;50.816;6.054;2023-03-05T02:47:42;4.63;;;2.10;;
41627;SDS011;27321;50.816;6.054;2023-03-05T02:50:43;5.70;;;2.28;;
41627;SDS011;27321;50.816;6.054;2023-03-05T02:53:45;5.57;;;2.30;;
41627;SDS011;27321;50.816;6.054;2023-03-05T02:56:47;6.82;;;2.15;;
41627;SDS011;27321;50.816;6.054;2023-03-05T02:59:48;3.42;;;2.00;;
41627;SDS011;27321;50.816;6.054;2023-03-05T03:02:49;3.80;;;1.88;;
41627;SDS011;27321;50.816;6.054;2023-03-05T03:05:50;2.90;;;1.80;;
41627;SDS011;27321;50.816;6.054;2023-03-05T03:08:51;5.63;;;2.00;;
41627;SDS011;27321;50.816;6.054;2023-03-05T03:11:52;3.25;;;1.88;;
41627;SDS011;27321;50.816;6.054;2023-03-05T03:14:56;6.73;;;2.00;;
41627;SDS011;27321;50.816;6.054;2023-03-05T03:18:00;5.73;;;1.90;;
41627;SDS011;27321;50.816;6.054;2023-03-05T03:21:01;8.07;;;2.50;;
41627;SDS011;27321;50.816;6.054;2023-03-05T03:24:04;6.93;;;2.50;;
41627;SDS011;27321;50.816;6.054;2023-03-05T03:27:05;4.25;;;2.08;;
41627;SDS011;27321;50.816;6.054;2023-03-05T03:30:06;5.28;;;2.15;;
41627;SDS011;27321;50.816;6.054;2023-03-05T03:33:08;4.50;;;2.33;;
41627;SDS011;27321;50.816;6.054;2023-03-05T03:36:09;4.07;;;2.03;;
41627;SDS011;27321;50.816;6.054;2023-03-05T03:39:11;3.63;;;2.28;;
41627;SDS011;27321;50.816;6.054;2023-03-05T03:42:18;4.13;;;2.10;;
41627;SDS011;27321;50.816;6.054;2023-03-05T03:45:20;4.07;;;2.00;;
41627;SDS011;27321;50.816;6.054;2023-03-05T03:48:22;5.15;;;2.40;;
41627;SDS011;27321;50.816;6.054;2023-03-05T03:51:22;6.63;;;2.63;;
41627;SDS011;27321;50.816;6.054;2023-03-05T03:54:24;6.07;;;2.40;;
41627;SDS011;27321;50.816;6.054;2023-03-05T03:57:25;10.02;;;3.08;;
41627;SDS011;27321;50.816;6.054;2023-03-05T04:00:27;4.60;;;2.50;;
41627;SDS011;27321;50.816;6.054;2023-03-05T04:03:28;4.13;;;2.40;;
41627;SDS011;27321;50.816;6.054;2023-03-05T04:06:29;2.93;;;2.00;;
41627;SDS011;27321;50.816;6.054;2023-03-05T04:12:32;4.13;;;2.30;;
41627;SDS011;27321;50.816;6.054;2023-03-05T04:15:33;4.20;;;2.23;;
41627;SDS011;27321;50.816;6.054;2023-03-05T04:18:34;6.88;;;2.08;;
41627;SDS011;27321;50.816;6.054;2023-03-05T04:21:35;8.63;;;2.77;;
41627;SDS011;27321;50.816;6.054;2023-03-05T04:24:36;5.47;;;2.27;;
41627;SDS011;27321;50.816;6.054;2023-03-05T04:27:37;5.65;;;2.70;;
41627;SDS011;27321;50.816;6.054;2023-03-05T04:30:39;6.57;;;2.50;;
41627;SDS011;27321;50.816;6.054;2023-03-05T04:33:40;4.60;;;2.53;;
41627;SDS011;27321;50.816;6.054;2023-03-05T04:36:41;5.37;;;2.53;;
41627;SDS011;27321;50.816;6.054;2023-03-05T04:39:42;7.43;;;2.47;;
41627;SDS011;27321;50.816;6.054;2023-03-05T04:42:43;7.17;;;2.57;;
41627;SDS011;27321;50.816;6.054;2023-03-05T04:45:45;4.20;;;2.28;;
41627;SDS011;27321;50.816;6.054;2023-03-05T04:48:46;5.23;;;2.57;;
41627;SDS011;27321;50.816;6.054;2023-03-05T04:51:46;6.23;;;2.67;;
41627;SDS011;27321;50.816;6.054;2023-03-05T04:54:48;5.63;;;2.28;;
41627;SDS011;27321;50.816;6.054;2023-03-05T04:57:49;3.70;;;2.27;;
41627;SDS011;27321;50.816;6.054;2023-03-05T05:00:50;8.30;;;2.42;;
41627;SDS011;27321;50.816;6.054;2023-03-05T05:03:51;5.93;;;2.33;;
41627;SDS011;27321;50.816;6.054;2023-03-05T05:06:53;6.70;;;2.57;;
41627;SDS011;27321;50.816;6.054;2023-03-05T05:09:56;5.83;;;2.30;;
41627;SDS011;27321;50.816;6.054;2023-03-05T05:12:57;4.70;;;2.08;;
41627;SDS011;27321;50.816;6.054;2023-03-05T05:15:58;3.17;;;1.97;;
41627;SDS011;27321;50.816;6.054;2023-03-05T05:18:59;4.53;;;2.30;;
41627;SDS011;27321;50.816;6.054;2023-03-05T05:22:00;7.50;;;2.35;;
41627;SDS011;27321;50.816;6.054;2023-03-05T05:25:01;3.67;;;1.83;;
41627;SDS011;27321;50.816;6.054;2023-03-05T05:28:03;5.07;;;2.65;;
41627;SDS011;27321;50.816;6.054;2023-03-05T05:31:11;3.75;;;2.08;;
41627;SDS011;27321;50.816;6.054;2023-03-05T05:34:14;4.07;;;2.00;;
41627;SDS011;27321;50.816;6.054;2023-03-05T05:37:15;3.13;;;1.80;;
41627;SDS011;27321;50.816;6.054;2023-03-05T05:40:16;6.63;;;2.67;;
41627;SDS011;27321;50.816;6.054;2023-03-05T05:43:17;4.18;;;2.10;;
41627;SDS011;27321;50.816;6.054;2023-03-05T05:46:18;2.83;;;1.90;;
41627;SDS011;27321;50.816;6.054;2023-03-05T05:49:20;7.80;;;2.40;;
41627;SDS011;27321;50.816;6.054;2023-03-05T05:52:21;8.50;;;2.50;;
41627;SDS011;27321;50.816;6.054;2023-03-05T05:55:22;5.40;;;2.03;;
41627;SDS011;27321;50.816;6.054;2023-03-05T05:58:23;3.47;;;2.30;;
41627;SDS011;27321;50.816;6.054;2023-03-05T06:01:25;6.00;;;2.47;;
41627;SDS011;27321;50.816;6.054;2023-03-05T06:04:29;3.23;;;1.70;;
41627;SDS011;27321;50.816;6.054;2023-03-05T06:07:32;7.43;;;2.30;;
41627;SDS011;27321;50.816;6.054;2023-03-05T06:10:34;4.73;;;1.90;;
41627;SDS011;27321;50.816;6.054;2023-03-05T06:13:35;4.22;;;1.95;;
41627;SDS011;27321;50.816;6.054;2023-03-05T06:16:37;3.80;;;1.90;;
41627;SDS011;27321;50.816;6.054;2023-03-05T06:19:38;5.95;;;2.67;;
41627;SDS011;27321;50.816;6.054;2023-03-05T06:22:39;4.40;;;2.37;;
41627;SDS011;27321;50.816;6.054;2023-03-05T06:25:40;5.53;;;1.90;;
41627;SDS011;27321;50.816;6.054;2023-03-05T06:28:41;6.50;;;2.30;;
41627;SDS011;27321;50.816;6.054;2023-03-05T06:31:42;3.42;;;2.00;;
41627;SDS011;27321;50.816;6.054;2023-03-05T06:34:43;5.20;;;1.80;;
41627;SDS011;27321;50.816;6.054;2023-03-05T06:37:44;5.10;;;2.20;;
41627;SDS011;27321;50.816;6.054;2023-03-05T06:40:45;3.40;;;2.00;;
41627;SDS011;27321;50.816;6.054;2023-03-05T06:43:47;6.20;;;2.30;;
41627;SDS011;27321;50.816;6.054;2023-03-05T06:46:49;5.37;;;2.87;;
41627;SDS011;27321;50.816;6.054;2023-03-05T06:49:49;7.43;;;2.40;;
41627;SDS011;27321;50.816;6.054;2023-03-05T06:52:51;7.33;;;2.53;;
41627;SDS011;27321;50.816;6.054;2023-03-05T06:55:53;5.63;;;2.27;;
41627;SDS011;27321;50.816;6.054;2023-03-05T06:58:54;5.97;;;2.35;;
41627;SDS011;27321;50.816;6.054;2023-03-05T07:01:55;4.77;;;2.70;;
41627;SDS011;27321;50.816;6.054;2023-03-05T07:04:56;5.27;;;2.07;;
41627;SDS011;27321;50.816;6.054;2023-03-05T07:07:57;4.30;;;2.20;;
41627;SDS011;27321;50.816;6.054;2023-03-05T07:10:58;5.57;;;2.60;;
41627;SDS011;27321;50.816;6.054;2023-03-05T07:17:01;7.03;;;2.70;;
41627;SDS011;27321;50.816;6.054;2023-03-05T07:20:03;4.35;;;2.17;;
41627;SDS011;27321;50.816;6.054;2023-03-05T07:23:04;7.75;;;2.40;;
41627;SDS011;27321;50.816;6.054;2023-03-05T07:26:06;6.30;;;2.58;;
41627;SDS011;27321;50.816;6.054;2023-03-05T07:29:07;4.70;;;2.05;;
41627;SDS011;27321;50.816;6.054;2023-03-05T07:32:08;3.85;;;2.05;;
41627;SDS011;27321;50.816;6.054;2023-03-05T07:35:09;7.17;;;2.10;;
41627;SDS011;27321;50.816;6.054;2023-03-05T07:38:10;7.00;;;2.17;;
41627;SDS011;27321;50.816;6.054;2023-03-05T07:41:12;6.97;;;2.80;;
41627;SDS011;27321;50.816;6.054;2023-03-05T07:44:19;2.63;;;2.10;;
41627;SDS011;27321;50.816;6.054;2023-03-05T07:47:20;4.17;;;2.30;;
41627;SDS011;27321;50.816;6.054;2023-03-05T07:50:22;5.73;;;2.17;;
41627;SDS011;27321;50.816;6.054;2023-03-05T07:53:23;4.25;;;1.92;;
41627;SDS011;27321;50.816;6.054;2023-03-05T07:56:31;5.10;;;2.13;;
41627;SDS011;27321;50.816;6.054;2023-03-05T07:59:34;4.37;;;2.20;;
41627;SDS011;27321;50.816;6.054;2023-03-05T08:02:36;3.30;;;1.70;;
41627;SDS011;27321;50.816;6.054;2023-03-05T08:05:40;4.72;;;2.10;;
41627;SDS011;27321;50.816;6.054;2023-03-05T08:08:41;5.83;;;2.30;;
41627;SDS011;27321;50.816;6.054;2023-03-05T08:11:42;4.80;;;2.17;;
41627;SDS011;27321;50.816;6.054;2023-03-05T08:14:46;6.37;;;2.40;;
41627;SDS011;27321;50.816;6.054;2023-03-05T08:17:48;6.70;;;2.47;;
41627;SDS011;27321;50.816;6.054;2023-03-05T08:20:49;9.53;;;3.37;;
41627;SDS011;27321;50.816;6.054;2023-03-05T08:23:50;3.90;;;2.87;;
41627;SDS011;27321;50.816;6.054;2023-03-05T08:26:51;5.80;;;2.80;;
41627;SDS011;27321;50.816;6.054;2023-03-05T08:29:52;5.57;;;2.73;;
41627;SDS011;27321;50.816;6.054;2023-03-05T08:32:54;7.45;;;2.85;;
41627;SDS011;27321;50.816;6.054;2023-03-05T08:35:56;4.27;;;2.37;;
41627;SDS011;27321;50.816;6.054;2023-03-05T08:38:57;7.43;;;3.07;;
41627;SDS011;27321;50.816;6.054;2023-03-05T08:41:58;6.03;;;2.72;;
41627;SDS011;27321;50.816;6.054;2023-03-05T08:45:00;7.03;;;3.50;;
41627;SDS011;27321;50.816;6.054;2023-03-05T08:48:01;6.97;;;3.47;;
41627;SDS011;27321;50.816;6.054;2023-03-05T08:51:12;7.03;;;3.40;;
41627;SDS011;27321;50.816;6.054;2023-03-05T08:54:16;6.37;;;3.73;;
41627;SDS011;27321;50.816;6.054;2023-03-05T08:57:17;8.03;;;4.43;;
41627;SDS011;27321;50.816;6.054;2023-03-05T09:00:18;8.55;;;4.65;;
41627;SDS011;27321;50.816;6.054;2023-03-05T09:03:19;8.15;;;4.80;;
41627;SDS011;27321;50.816;6.054;2023-03-05T09:06:20;4.97;;;3.60;;
41627;SDS011;27321;50.816;6.054;2023-03-05T09:09:22;12.77;;;4.40;;
41627;SDS011;27321;50.816;6.054;2023-03-05T09:15:25;7.93;;;3.50;;
41627;SDS011;27321;50.816;6.054;2023-03-05T09:18:26;6.10;;;3.80;;
41627;SDS011;27321;50.816;6.054;2023-03-05T09:24:28;6.97;;;3.93;;
41627;SDS011;27321;50.816;6.054;2023-03-05T09:27:33;9.53;;;4.50;;
41627;SDS011;27321;50.816;6.054;2023-03-05T09:30:35;6.00;;;3.47;;
41627;SDS011;27321;50.816;6.054;2023-03-05T09:33:36;8.32;;;4.10;;
41627;SDS011;27321;50.816;6.054;2023-03-05T09:36:38;9.10;;;4.72;;
41627;SDS011;27321;50.816;6.054;2023-03-05T09:39:40;10.00;;;5.10;;
41627;SDS011;27321;50.816;6.054;2023-03-05T09:53:06;10.50;;;8.50;;
41627;SDS011;27321;50.816;6.054;2023-03-05T09:56:31;13.30;;;8.43;;
41627;SDS011;27321;50.816;6.054;2023-03-05T10:02:51;15.70;;;10.17;;
41627;SDS011;27321;50.816;6.054;2023-03-05T10:06:05;12.80;;;9.17;;
41627;SDS011;27321;50.816;6.054;2023-03-05T10:13:01;10.77;;;9.00;;
41627;SDS011;27321;50.816;6.054;2023-03-05T10:20:00;14.07;;;8.23;;
41627;SDS011;27321;50.816;6.054;2023-03-05T10:26:43;7.37;;;4.40;;
41627;SDS011;27321;50.816;6.054;2023-03-05T10:51:19;5.43;;;3.47;;
41627;SDS011;27321;50.816;6.054;2023-03-05T10:54:56;6.80;;;3.90;;
41627;SDS011;27321;50.816;6.054;2023-03-05T10:57:58;4.97;;;3.70;;
41627;SDS011;27321;50.816;6.054;2023-03-05T11:04:25;5.50;;;4.37;;
41627;SDS011;27321;50.816;6.054;2023-03-05T11:07:32;4.27;;;3.67;;
41627;SDS011;27321;50.816;6.054;2023-03-05T11:10:37;4.53;;;3.30;;
41627;SDS011;27321;50.816;6.054;2023-03-05T11:13:57;6.38;;;3.90;;
41627;SDS011;27321;50.816;6.054;2023-03-05T11:17:02;4.93;;;3.40;;
41627;SDS011;27321;50.816;6.054;2023-03-05T11:23:26;6.07;;;3.23;;
41627;SDS011;27321;50.816;6.054;2023-03-05T11:26:27;4.57;;;2.80;;
41627;SDS011;27321;50.816;6.054;2023-03-05T11:29:31;4.85;;;2.78;;
41627;SDS011;27321;50.816;6.054;2023-03-05T11:32:34;5.90;;;2.90;;
41627;SDS011;27321;50.816;6.054;2023-03-05T11:35:36;3.73;;;3.27;;
41627;SDS011;27321;50.816;6.054;2023-03-05T11:39:13;3.60;;;3.00;;
41627;SDS011;27321;50.816;6.054;2023-03-05T11:42:17;3.37;;;2.80;;
41627;SDS011;27321;50.816;6.054;2023-03-05T11:45:24;5.53;;;2.87;;
41627;SDS011;27321;50.816;6.054;2023-03-05T11:48:29;4.63;;;2.73;;
41627;SDS011;27321;50.816;6.054;2023-03-05T11:54:51;5.82;;;3.08;;
41627;SDS011;27321;50.816;6.054;2023-03-05T12:01:30;4.47;;;3.00;;
41627;SDS011;27321;50.816;6.054;2023-03-05T12:04:35;4.73;;;3.00;;
41627;SDS011;27321;50.816;6.054;2023-03-05T12:07:39;7.65;;;3.90;;
41627;SDS011;27321;50.816;6.054;2023-03-05T12:10:47;6.20;;;3.47;;
41627;SDS011;27321;50.816;6.054;2023-03-05T12:13:50;5.95;;;3.50;;
41627;SDS011;27321;50.816;6.054;2023-03-05T12:17:09;5.53;;;3.70;;
41627;SDS011;27321;50.816;6.054;2023-03-05T12:20:22;4.37;;;3.20;;
41627;SDS011;27321;50.816;6.054;2023-03-05T12:23:45;4.33;;;3.13;;
41627;SDS011;27321;50.816;6.054;2023-03-05T12:30:04;5.10;;;3.03;;
41627;SDS011;27321;50.816;6.054;2023-03-05T12:36:38;4.73;;;3.40;;
41627;SDS011;27321;50.816;6.054;2023-03-05T12:45:49;5.63;;;3.00;;
41627;SDS011;27321;50.816;6.054;2023-03-05T12:48:52;3.83;;;3.20;;
41627;SDS011;27321;50.816;6.054;2023-03-05T12:51:53;5.33;;;3.00;;
41627;SDS011;27321;50.816;6.054;2023-03-05T12:55:00;5.03;;;3.70;;
41627;SDS011;27321;50.816;6.054;2023-03-05T12:58:19;6.57;;;4.00;;
41627;SDS011;27321;50.816;6.054;2023-03-05T13:04:32;5.33;;;4.13;;
41627;SDS011;27321;50.816;6.054;2023-03-05T13:07:44;4.27;;;3.57;;
41627;SDS011;27321;50.816;6.054;2023-03-05T13:10:49;4.30;;;3.47;;
41627;SDS011;27321;50.816;6.054;2023-03-05T13:14:24;4.30;;;3.87;;
41627;SDS011;27321;50.816;6.054;2023-03-05T13:18:13;3.60;;;3.30;;
41627;SDS011;27321;50.816;6.054;2023-03-05T13:21:32;5.17;;;3.50;;
41627;SDS011;27321;50.816;6.054;2023-03-05T13:24:34;4.73;;;3.90;;
41627;SDS011;27321;50.816;6.054;2023-03-05T13:27:35;3.77;;;3.43;;
41627;SDS011;27321;50.816;6.054;2023-03-05T13:30:36;5.30;;;3.67;;
41627;SDS011;27321;50.816;6.054;2023-03-05T13:33:38;4.68;;;3.80;;
41627;SDS011;27321;50.816;6.054;2023-03-05T13:36:39;6.47;;;3.42;;
41627;SDS011;27321;50.816;6.054;2023-03-05T13:40:04;5.60;;;3.30;;
41627;SDS011;27321;50.816;6.054;2023-03-05T13:43:27;4.37;;;3.57;;
41627;SDS011;27321;50.816;6.054;2023-03-05T13:46:33;5.40;;;3.33;;
41627;SDS011;27321;50.816;6.054;2023-03-05T13:49:37;5.20;;;3.00;;
41627;SDS011;27321;50.816;6.054;2023-03-05T13:52:39;3.45;;;2.88;;
41627;SDS011;27321;50.816;6.054;2023-03-05T13:55:40;4.85;;;3.38;;
41627;SDS011;27321;50.816;6.054;2023-03-05T13:58:42;4.47;;;3.80;;
41627;SDS011;27321;50.816;6.054;2023-03-05T14:01:48;4.60;;;4.03;;
41627;SDS011;27321;50.816;6.054;2023-03-05T14:04:50;5.77;;;3.53;;
41627;SDS011;27321;50.816;6.054;2023-03-05T14:07:51;5.37;;;3.30;;
41627;SDS011;27321;50.816;6.054;2023-03-05T14:10:53;5.30;;;3.53;;
41627;SDS011;27321;50.816;6.054;2023-03-05T14:14:14;3.80;;;3.23;;
41627;SDS011;27321;50.816;6.054;2023-03-05T14:20:27;3.50;;;3.20;;
41627;SDS011;27321;50.816;6.054;2023-03-05T14:26:53;4.43;;;2.93;;
41627;SDS011;27321;50.816;6.054;2023-03-05T14:29:57;3.77;;;2.80;;
41627;SDS011;27321;50.816;6.054;2023-03-05T14:32:58;5.53;;;3.10;;
41627;SDS011;27321;50.816;6.054;2023-03-05T14:36:01;4.63;;;3.10;;
41627;SDS011;27321;50.816;6.054;2023-03-05T14:39:04;3.97;;;3.00;;
41627;SDS011;27321;50.816;6.054;2023-03-05T14:42:48;3.97;;;3.45;;
41627;SDS011;27321;50.816;6.054;2023-03-05T14:45:50;5.17;;;3.23;;
41627;SDS011;27321;50.816;6.054;2023-03-05T14:48:51;6.07;;;3.27;;
41627;SDS011;27321;50.816;6.054;2023-03-05T14:54:54;5.00;;;3.20;;
41627;SDS011;27321;50.816;6.054;2023-03-05T14:58:03;6.82;;;3.17;;
41627;SDS011;27321;50.816;6.054;2023-03-05T15:01:12;3.57;;;3.03;;
41627;SDS011;27321;50.816;6.054;2023-03-05T15:04:13;3.23;;;2.93;;
41627;SDS011;27321;50.816;6.054;2023-03-05T15:07:19;3.60;;;2.97;;
41627;SDS011;27321;50.816;6.054;2023-03-05T15:10:26;2.90;;;2.60;;
41627;SDS011;27321;50.816;6.054;2023-03-05T15:13:27;3.92;;;2.83;;
41627;SDS011;27321;50.816;6.054;2023-03-05T15:16:28;2.97;;;2.50;;
41627;SDS011;27321;50.816;6.054;2023-03-05T15:19:29;3.15;;;2.10;;
41627;SDS011;27321;50.816;6.054;2023-03-05T15:22:30;2.00;;;1.77;;
41627;SDS011;27321;50.816;6.054;2023-03-05T15:25:32;3.38;;;2.28;;
41627;SDS011;27321;50.816;6.054;2023-03-05T15:28:36;3.75;;;2.85;;
41627;SDS011;27321;50.816;6.054;2023-03-05T15:31:38;3.53;;;1.90;;
41627;SDS011;27321;50.816;6.054;2023-03-05T15:34:39;2.60;;;2.03;;
41627;SDS011;27321;50.816;6.054;2023-03-05T15:37:40;4.43;;;2.65;;
41627;SDS011;27321;50.816;6.054;2023-03-05T15:40:41;4.30;;;2.50;;
41627;SDS011;27321;50.816;6.054;2023-03-05T15:43:43;3.65;;;2.20;;
41627;SDS011;27321;50.816;6.054;2023-03-05T15:46:44;3.33;;;2.50;;
41627;SDS011;27321;50.816;6.054;2023-03-05T15:49:46;2.28;;;1.80;;
41627;SDS011;27321;50.816;6.054;2023-03-05T15:52:47;4.32;;;2.40;;
41627;SDS011;27321;50.816;6.054;2023-03-05T15:55:48;2.10;;;1.65;;
41627;SDS011;27321;50.816;6.054;2023-03-05T15:58:50;1.90;;;1.57;;
41627;SDS011;27321;50.816;6.054;2023-03-05T16:01:51;2.03;;;1.70;;
41627;SDS011;27321;50.816;6.054;2023-03-05T16:04:52;3.47;;;1.90;;
41627;SDS011;27321;50.816;6.054;2023-03-05T16:07:53;4.25;;;1.80;;
41627;SDS011;27321;50.816;6.054;2023-03-05T16:10:55;2.88;;;2.00;;
41627;SDS011;27321;50.816;6.054;2023-03-05T16:13:56;2.45;;;1.90;;
41627;SDS011;27321;50.816;6.054;2023-03-05T16:17:01;3.17;;;1.90;;
41627;SDS011;27321;50.816;6.054;2023-03-05T16:20:03;2.65;;;2.10;;
41627;SDS011;27321;50.816;6.054;2023-03-05T16:23:05;2.97;;;1.90;;
41627;SDS011;27321;50.816;6.054;2023-03-05T16:26:07;2.80;;;1.45;;
41627;SDS011;27321;50.816;6.054;2023-03-05T16:29:10;2.00;;;1.63;;
41627;SDS011;27321;50.816;6.054;2023-03-05T16:32:11;3.65;;;1.70;;
41627;SDS011;27321;50.816;6.054;2023-03-05T16:35:12;2.15;;;1.70;;
41627;SDS011;27321;50.816;6.054;2023-03-05T16:38:14;3.72;;;1.90;;
41627;SDS011;27321;50.816;6.054;2023-03-05T16:41:15;2.08;;;1.80;;
41627;SDS011;27321;50.816;6.054;2023-03-05T16:44:18;3.83;;;2.00;;
41627;SDS011;27321;50.816;6.054;2023-03-05T16:47:19;3.25;;;2.03;;
41627;SDS011;27321;50.816;6.054;2023-03-05T16:50:21;3.15;;;2.15;;
41627;SDS011;27321;50.816;6.054;2023-03-05T16:53:23;3.27;;;2.17;;
41627;SDS011;27321;50.816;6.054;2023-03-05T16:56:24;4.57;;;2.40;;
41627;SDS011;27321;50.816;6.054;2023-03-05T16:59:25;3.40;;;1.90;;
41627;SDS011;27321;50.816;6.054;2023-03-05T17:02:27;3.05;;;1.80;;
41627;SDS011;27321;50.816;6.054;2023-03-05T17:05:28;2.40;;;1.83;;
41627;SDS011;27321;50.816;6.054;2023-03-05T17:08:29;3.00;;;2.30;;
41627;SDS011;27321;50.816;6.054;2023-03-05T17:11:30;3.33;;;2.38;;
41627;SDS011;27321;50.816;6.054;2023-03-05T17:14:31;4.80;;;2.65;;
41627;SDS011;27321;50.816;6.054;2023-03-05T17:17:33;5.30;;;2.58;;
41627;SDS011;27321;50.816;6.054;2023-03-05T17:20:33;4.17;;;2.73;;
41627;SDS011;27321;50.816;6.054;2023-03-05T17:23:35;4.47;;;2.70;;
41627;SDS011;27321;50.816;6.054;2023-03-05T17:26:38;3.83;;;2.90;;
41627;SDS011;27321;50.816;6.054;2023-03-05T17:29:39;4.30;;;2.90;;
41627;SDS011;27321;50.816;6.054;2023-03-05T17:32:40;3.72;;;2.90;;
41627;SDS011;27321;50.816;6.054;2023-03-05T17:35:42;4.45;;;3.05;;
41627;SDS011;27321;50.816;6.054;2023-03-05T17:38:47;4.10;;;2.90;;
41627;SDS011;27321;50.816;6.054;2023-03-05T17:41:49;4.53;;;3.00;;
41627;SDS011;27321;50.816;6.054;2023-03-05T17:44:50;3.60;;;3.30;;
41627;SDS011;27321;50.816;6.054;2023-03-05T17:47:51;4.20;;;3.10;;
41627;SDS011;27321;50.816;6.054;2023-03-05T17:50:52;5.55;;;3.22;;
41627;SDS011;27321;50.816;6.054;2023-03-05T17:53:54;4.72;;;3.35;;
41627;SDS011;27321;50.816;6.054;2023-03-05T17:56:55;4.80;;;3.33;;
41627;SDS011;27321;50.816;6.054;2023-03-05T17:59:57;3.83;;;3.13;;
41627;SDS011;27321;50.816;6.054;2023-03-05T18:02:58;4.87;;;3.57;;
41627;SDS011;27321;50.816;6.054;2023-03-05T18:05:59;3.92;;;3.13;;
41627;SDS011;27321;50.816;6.054;2023-03-05T18:09:00;4.67;;;3.30;;
41627;SDS011;27321;50.816;6.054;2023-03-05T18:12:01;4.40;;;3.20;;
41627;SDS011;27321;50.816;6.054;2023-03-05T18:15:03;5.77;;;3.63;;
41627;SDS011;27321;50.816;6.054;2023-03-05T18:18:06;5.97;;;3.50;;
41627;SDS011;27321;50.816;6.054;2023-03-05T18:21:06;6.53;;;3.80;;
41627;SDS011;27321;50.816;6.054;2023-03-05T18:24:08;6.13;;;4.00;;
41627;SDS011;27321;50.816;6.054;2023-03-05T18:27:10;4.57;;;3.80;;
41627;SDS011;27321;50.816;6.054;2023-03-05T18:30:11;5.80;;;3.80;;
41627;SDS011;27321;50.816;6.054;2023-03-05T18:33:14;7.07;;;4.00;;
41627;SDS011;27321;50.816;6.054;2023-03-05T18:36:22;4.90;;;3.67;;
41627;SDS011;27321;50.816;6.054;2023-03-05T18:39:23;7.10;;;4.15;;
41627;SDS011;27321;50.816;6.054;2023-03-05T18:42:24;7.33;;;4.50;;
41627;SDS011;27321;50.816;6.054;2023-03-05T18:45:25;7.03;;;4.40;;
41627;SDS011;27321;50.816;6.054;2023-03-05T18:48:27;5.63;;;3.85;;
41627;SDS011;27321;50.816;6.054;2023-03-05T18:51:28;6.00;;;4.33;;
41627;SDS011;27321;50.816;6.054;2023-03-05T18:54:31;4.23;;;3.37;;
41627;SDS011;27321;50.816;6.054;2023-03-05T18:57:32;4.63;;;4.03;;
41627;SDS011;27321;50.816;6.054;2023-03-05T19:00:33;5.37;;;4.30;;
41627;SDS011;27321;50.816;6.054;2023-03-05T19:03:34;7.18;;;4.28;;
41627;SDS011;27321;50.816;6.054;2023-03-05T19:06:35;7.80;;;4.40;;
41627;SDS011;27321;50.816;6.054;2023-03-05T19:13:01;7.43;;;4.80;;
41627;SDS011;27321;50.816;6.054;2023-03-05T19:16:23;5.97;;;4.40;;
41627;SDS011;27321;50.816;6.054;2023-03-05T19:19:28;6.17;;;4.87;;
41627;SDS011;27321;50.816;6.054;2023-03-05T19:22:29;6.63;;;4.60;;
41627;SDS011;27321;50.816;6.054;2023-03-05T19:25:31;7.43;;;5.10;;
41627;SDS011;27321;50.816;6.054;2023-03-05T19:28:32;10.77;;;5.45;;
41627;SDS011;27321;50.816;6.054;2023-03-05T19:31:37;9.37;;;6.07;;
41627;SDS011;27321;50.816;6.054;2023-03-05T19:34:39;7.53;;;5.97;;
41627;SDS011;27321;50.816;6.054;2023-03-05T19:37:40;9.13;;;6.50;;
41627;SDS011;27321;50.816;6.054;2023-03-05T19:43:43;8.20;;;5.87;;
41627;SDS011;27321;50.816;6.054;2023-03-05T19:46:44;8.90;;;6.20;;
41627;SDS011;27321;50.816;6.054;2023-03-05T19:49:47;10.13;;;5.73;;
41627;SDS011;27321;50.816;6.054;2023-03-05T19:52:48;9.87;;;7.13;;
41627;SDS011;27321;50.816;6.054;2023-03-05T19:55:49;9.43;;;6.70;;
41627;SDS011;27321;50.816;6.054;2023-03-05T19:58:50;8.87;;;6.50;;
41627;SDS011;27321;50.816;6.054;2023-03-05T20:01:51;10.13;;;7.45;;
41627;SDS011;27321;50.816;6.054;2023-03-05T20:04:53;11.95;;;7.40;;
41627;SDS011;27321;50.816;6.054;2023-03-05T20:07:54;10.23;;;7.05;;
41627;SDS011;27321;50.816;6.054;2023-03-05T20:10:56;11.30;;;7.70;;
41627;SDS011;27321;50.816;6.054;2023-03-05T20:13:58;9.90;;;6.90;;
41627;SDS011;27321;50.816;6.054;2023-03-05T20:16:59;11.53;;;6.77;;